createdAt,value
2023-11-18T00:00:00.460Z,11.43
2023-11-18T00:02:27.288Z,8.57
2023-11-18T00:04:54.170Z,9.37
2023-11-18T00:07:20.938Z,10.50
2023-11-18T00:09:47.622Z,10.17
2023-11-18T00:12:15.214Z,8.83
2023-11-18T00:14:43.612Z,12.27
2023-11-18T00:17:11.161Z,13.60
2023-11-18T00:19:38.073Z,13.27
2023-11-18T00:22:04.797Z,13.77
2023-11-18T00:24:35.673Z,11.33
2023-11-18T00:27:07.109Z,12.70
2023-11-18T00:29:38.892Z,14.50
2023-11-18T00:32:06.213Z,16.03
2023-11-18T00:34:33.153Z,14.10
2023-11-18T00:36:59.957Z,13.90
2023-11-18T00:39:28.151Z,12.60
2023-11-18T00:41:56.859Z,11.10
2023-11-18T00:44:23.618Z,10.03
2023-11-18T00:46:50.792Z,10.23
2023-11-18T00:49:18.530Z,8.73
2023-11-18T00:51:45.255Z,11.20
2023-11-18T00:54:13.382Z,12.63
2023-11-18T00:56:40.103Z,12.63
2023-11-18T00:59:07.605Z,13.80
2023-11-18T01:01:34.528Z,13.77
2023-11-18T01:04:02.569Z,13.97
2023-11-18T01:06:29.340Z,12.10
2023-11-18T01:08:56.051Z,12.10
2023-11-18T01:11:25.806Z,16.93
2023-11-18T01:13:52.699Z,13.13
2023-11-18T01:16:20.629Z,10.50
2023-11-18T01:18:47.635Z,11.87
2023-11-18T01:21:14.645Z,12.30
2023-11-18T01:23:45.839Z,11.00
2023-11-18T01:26:13.589Z,15.20
2023-11-18T01:28:44.302Z,14.70
2023-11-18T01:31:11.818Z,13.80
2023-11-18T01:33:40.919Z,19.77
2023-11-18T01:36:11.503Z,15.90
2023-11-18T01:38:38.867Z,14.30
2023-11-18T01:41:10.250Z,13.60
2023-11-18T01:43:36.971Z,15.93
2023-11-18T01:46:06.031Z,15.23
2023-11-18T01:48:36.113Z,13.53
2023-11-18T01:51:05.855Z,18.43
2023-11-18T01:53:34.248Z,17.90
2023-11-18T01:56:01.112Z,20.10
2023-11-18T01:58:28.649Z,16.80
2023-11-18T02:00:56.891Z,18.60
2023-11-18T02:03:23.765Z,15.83
2023-11-18T02:05:50.616Z,17.00
2023-11-18T02:08:17.538Z,18.83
2023-11-18T02:10:58.457Z,15.47
2023-11-18T02:13:32.230Z,17.57
2023-11-18T02:15:59.740Z,14.77
2023-11-18T02:18:27.722Z,19.97
2023-11-18T02:20:58.365Z,16.90
2023-11-18T02:23:27.347Z,13.27
2023-11-18T02:25:54.464Z,16.77
2023-11-18T02:28:21.235Z,18.53
2023-11-18T02:30:50.204Z,15.07
2023-11-18T02:33:31.300Z,15.67
2023-11-18T02:36:06.344Z,17.80
2023-11-18T02:38:39.843Z,15.23
2023-11-18T02:41:12.775Z,15.73
2023-11-18T02:43:41.472Z,17.43
2023-11-18T02:46:10.367Z,16.93
2023-11-18T02:48:39.070Z,16.53
2023-11-18T02:51:08.913Z,14.63
2023-11-18T02:53:36.181Z,12.57
2023-11-18T02:56:05.795Z,13.03
2023-11-18T02:58:34.256Z,12.60
2023-11-18T03:01:01.031Z,11.83
2023-11-18T03:03:30.978Z,13.73
2023-11-18T03:05:57.916Z,8.00
2023-11-18T03:08:24.969Z,9.30
2023-11-18T03:10:53.624Z,12.13
2023-11-18T03:13:20.453Z,10.73
2023-11-18T03:15:49.248Z,11.50
2023-11-18T03:18:16.507Z,12.73
2023-11-18T03:20:44.012Z,10.40
2023-11-18T03:23:10.843Z,11.10
2023-11-18T03:25:39.104Z,9.70
2023-11-18T03:28:07.504Z,8.00
2023-11-18T03:30:36.459Z,8.27
2023-11-18T03:33:03.350Z,7.03
2023-11-18T03:35:31.001Z,7.27
2023-11-18T03:37:58.004Z,8.40
2023-11-18T03:40:24.967Z,8.30
2023-11-18T03:42:51.708Z,8.40
2023-11-18T03:45:19.457Z,9.57
2023-11-18T03:47:46.412Z,7.17
2023-11-18T03:50:14.850Z,8.17
2023-11-18T03:52:41.806Z,8.07
2023-11-18T03:55:09.771Z,8.37
2023-11-18T03:57:36.459Z,10.97
2023-11-18T04:00:04.275Z,8.23
2023-11-18T04:02:37.306Z,8.17
2023-11-18T04:05:04.986Z,9.13
2023-11-18T04:07:31.752Z,9.00
2023-11-18T04:09:58.475Z,8.67
2023-11-18T04:12:25.266Z,6.70
2023-11-18T04:14:51.982Z,8.80
2023-11-18T04:17:18.811Z,7.63
2023-11-18T04:19:46.627Z,10.90
2023-11-18T04:22:13.368Z,7.23
2023-11-18T04:24:40.334Z,7.23
2023-11-18T04:27:07.134Z,7.33
2023-11-18T04:29:34.154Z,8.63
2023-11-18T04:32:01.142Z,11.07
2023-11-18T04:34:27.912Z,6.07
2023-11-18T04:36:54.653Z,10.50
2023-11-18T04:39:23.524Z,8.70
2023-11-18T04:41:50.285Z,6.60
2023-11-18T04:44:17.559Z,8.47
2023-11-18T04:46:45.697Z,9.00
2023-11-18T04:49:12.503Z,6.23
2023-11-18T04:51:39.253Z,8.00
2023-11-18T04:54:08.822Z,6.03
2023-11-18T04:56:38.939Z,18.53
2023-11-18T04:59:06.256Z,7.80
2023-11-18T05:01:33.634Z,6.33
2023-11-18T05:04:00.839Z,9.97
2023-11-18T05:06:27.599Z,7.37
2023-11-18T05:08:54.511Z,7.60
2023-11-18T05:11:21.443Z,6.13
2023-11-18T05:13:48.145Z,7.93
2023-11-18T05:16:15.308Z,5.80
2023-11-18T05:18:42.370Z,8.33
2023-11-18T05:21:09.285Z,5.40
2023-11-18T05:23:38.780Z,5.93
2023-11-18T05:26:06.510Z,8.77
2023-11-18T05:28:33.610Z,7.70
2023-11-18T05:31:02.799Z,8.17
2023-11-18T05:33:29.896Z,8.47
2023-11-18T05:35:56.582Z,6.43
2023-11-18T05:38:24.870Z,7.87
2023-11-18T05:40:57.708Z,8.40
2023-11-18T05:43:41.570Z,8.83
2023-11-18T05:46:26.711Z,10.10
2023-11-18T05:48:54.216Z,7.87
2023-11-18T05:51:26.249Z,9.07
2023-11-18T05:53:53.941Z,7.43
2023-11-18T05:56:23.240Z,9.07
2023-11-18T05:58:50.162Z,11.17
2023-11-18T06:01:18.003Z,10.70
2023-11-18T06:03:45.289Z,10.67
2023-11-18T06:06:14.929Z,9.50
2023-11-18T06:08:44.709Z,8.47
2023-11-18T06:11:15.164Z,8.50
2023-11-18T06:13:50.681Z,11.90
2023-11-18T06:16:21.449Z,8.37
2023-11-18T06:18:49.968Z,7.70
2023-11-18T06:21:19.296Z,7.47
2023-11-18T06:23:48.412Z,9.80
2023-11-18T06:26:16.262Z,8.47
2023-11-18T06:28:47.522Z,12.47
2023-11-18T06:31:15.263Z,10.00
2023-11-18T06:33:46.891Z,7.80
2023-11-18T06:36:19.626Z,6.97
2023-11-18T06:38:47.103Z,8.67
2023-11-18T06:41:16.349Z,8.73
2023-11-18T06:43:57.565Z,8.03
2023-11-18T06:46:34.598Z,8.60
2023-11-18T06:49:07.562Z,7.70
2023-11-18T06:51:37.108Z,6.80
2023-11-18T06:54:11.945Z,5.93
2023-11-18T06:56:46.024Z,4.90
2023-11-18T06:59:14.454Z,7.60
2023-11-18T07:01:43.728Z,7.17
2023-11-18T07:04:10.849Z,5.67
2023-11-18T07:06:41.966Z,6.17
2023-11-18T07:09:21.686Z,10.10
2023-11-18T07:11:49.419Z,6.40
2023-11-18T07:14:16.933Z,6.53
2023-11-18T07:16:45.624Z,4.67
2023-11-18T07:19:20.673Z,7.47
2023-11-18T07:21:51.443Z,6.20
2023-11-18T07:24:18.664Z,6.50
2023-11-18T07:26:46.403Z,6.83
2023-11-18T07:29:13.338Z,5.30
2023-11-18T07:31:40.155Z,8.17
2023-11-18T07:34:07.113Z,6.40
2023-11-18T07:36:34.357Z,8.53
2023-11-18T07:39:04.787Z,7.80
2023-11-18T07:41:34.830Z,8.20
2023-11-18T07:44:02.368Z,7.50
2023-11-18T07:46:31.572Z,5.40
2023-11-18T07:48:58.882Z,8.30
2023-11-18T07:51:26.082Z,7.00
2023-11-18T07:53:53.990Z,6.40
2023-11-18T07:56:23.532Z,9.53
2023-11-18T07:58:51.549Z,6.60
2023-11-18T08:01:18.804Z,10.00
2023-11-18T08:03:45.838Z,7.17
2023-11-18T08:06:13.324Z,11.17
2023-11-18T08:08:40.477Z,8.50
2023-11-18T08:11:07.465Z,8.33
2023-11-18T08:13:34.305Z,7.87
2023-11-18T08:16:01.258Z,6.00
2023-11-18T08:18:28.871Z,6.73
2023-11-18T08:20:56.118Z,6.00
2023-11-18T08:23:22.987Z,6.27
2023-11-18T08:25:51.830Z,5.67
2023-11-18T08:28:18.598Z,6.43
2023-11-18T08:30:45.788Z,10.03
2023-11-18T08:33:12.592Z,8.67
2023-11-18T08:35:39.512Z,8.97
2023-11-18T08:38:08.566Z,6.47
2023-11-18T08:40:36.913Z,12.63
2023-11-18T08:43:08.404Z,8.33
2023-11-18T08:45:35.773Z,11.00
2023-11-18T08:48:09.086Z,6.93
2023-11-18T08:50:37.472Z,7.60
2023-11-18T08:53:10.387Z,10.13
2023-11-18T08:55:41.469Z,8.63
2023-11-18T08:58:20.720Z,6.83
2023-11-18T09:00:49.685Z,27.47
2023-11-18T09:03:35.755Z,9.97
2023-11-18T09:06:18.403Z,11.30
2023-11-18T09:08:54.408Z,11.53
2023-11-18T09:11:28.116Z,13.63
2023-11-18T09:13:55.686Z,12.37
2023-11-18T09:16:23.473Z,9.27
2023-11-18T09:18:51.990Z,9.17
2023-11-18T09:21:26.249Z,12.67
2023-11-18T09:23:53.182Z,3.77
2023-11-18T09:26:20.171Z,4.30
2023-11-18T09:28:47.042Z,4.53
2023-11-18T09:31:13.954Z,8.20
2023-11-18T09:33:46.095Z,8.17
2023-11-18T09:36:15.775Z,7.13
2023-11-18T09:38:43.320Z,5.33
2023-11-18T09:41:14.409Z,5.43
2023-11-18T09:43:44.508Z,4.07
2023-11-18T09:46:15.302Z,4.43
2023-11-18T09:49:00.487Z,4.53
2023-11-18T09:51:31.647Z,5.43
2023-11-18T09:54:04.329Z,5.53
2023-11-18T09:56:57.947Z,5.90
2023-11-18T09:59:35.249Z,8.57
2023-11-18T10:02:08.111Z,5.43
2023-11-18T10:04:38.375Z,3.80
2023-11-18T10:07:08.191Z,4.80
2023-11-18T10:09:41.067Z,3.67
2023-11-18T10:12:13.377Z,3.20
2023-11-18T10:14:44.685Z,3.00
2023-11-18T10:17:15.494Z,3.47
2023-11-18T10:20:00.662Z,2.03
2023-11-18T10:22:29.371Z,6.10
2023-11-18T10:25:02.028Z,13.43
2023-11-18T10:27:29.286Z,7.57
2023-11-18T10:30:03.945Z,5.07
2023-11-18T10:32:31.005Z,5.97
2023-11-18T10:34:59.038Z,4.57
2023-11-18T10:37:32.870Z,4.07
2023-11-18T10:40:05.379Z,4.47
2023-11-18T10:42:33.835Z,4.97
2023-11-18T10:45:04.739Z,6.00
2023-11-18T10:47:40.557Z,4.33
2023-11-18T10:50:10.965Z,2.90
2023-11-18T10:52:41.762Z,3.77
2023-11-18T10:55:13.657Z,7.03
2023-11-18T10:57:43.212Z,3.83
2023-11-18T11:00:20.489Z,3.10
2023-11-18T11:02:51.131Z,3.70
2023-11-18T11:05:34.589Z,6.23
2023-11-18T11:08:04.008Z,2.63
2023-11-18T11:10:30.880Z,4.67
2023-11-18T11:13:03.036Z,4.37
2023-11-18T11:15:51.640Z,2.27
2023-11-18T11:18:29.295Z,7.00
2023-11-18T11:21:05.041Z,3.00
2023-11-18T11:23:54.652Z,2.93
2023-11-18T11:26:39.845Z,5.17
2023-11-18T11:29:31.441Z,6.30
2023-11-18T11:32:13.626Z,3.57
2023-11-18T11:34:54.699Z,4.60
2023-11-18T11:37:27.215Z,4.00
2023-11-18T11:39:55.089Z,2.87
2023-11-18T11:42:23.809Z,6.40
2023-11-18T11:44:54.278Z,2.83
2023-11-18T11:47:24.371Z,4.27
2023-11-18T11:50:11.553Z,3.33
2023-11-18T11:52:45.756Z,2.87
2023-11-18T11:55:37.535Z,3.07
2023-11-18T11:58:04.276Z,3.57
2023-11-18T12:00:36.276Z,6.97
2023-11-18T12:03:05.841Z,3.50
2023-11-18T12:05:34.894Z,1.60
2023-11-18T12:08:01.949Z,1.87
2023-11-18T12:10:32.127Z,5.00
2023-11-18T12:13:17.993Z,2.57
2023-11-18T12:15:56.009Z,5.33
2023-11-18T12:18:23.592Z,1.60
2023-11-18T12:20:55.143Z,4.20
2023-11-18T12:23:25.664Z,3.33
2023-11-18T12:25:56.170Z,3.03
2023-11-18T12:28:27.899Z,3.53
2023-11-18T12:30:58.685Z,5.83
2023-11-18T12:33:29.915Z,2.07
2023-11-18T12:36:32.680Z,5.63
2023-11-18T12:38:59.407Z,4.03
2023-11-18T12:41:39.322Z,3.00
2023-11-18T12:44:32.847Z,5.43
2023-11-18T12:47:15.549Z,3.37
2023-11-18T12:49:43.252Z,4.73
2023-11-18T12:52:12.238Z,8.03
2023-11-18T12:54:42.468Z,4.23
2023-11-18T12:57:09.217Z,3.87
2023-11-18T12:59:36.925Z,3.73
2023-11-18T13:02:05.920Z,4.07
2023-11-18T13:04:32.851Z,6.70
2023-11-18T13:07:01.181Z,6.97
2023-11-18T13:09:33.357Z,7.63
2023-11-18T13:12:05.219Z,5.10
2023-11-18T13:14:37.506Z,4.93
2023-11-18T13:17:09.763Z,3.33
2023-11-18T13:19:36.648Z,5.03
2023-11-18T13:22:10.789Z,8.00
2023-11-18T13:24:41.258Z,2.93
2023-11-18T13:27:14.979Z,3.83
2023-11-18T13:29:46.472Z,4.50
2023-11-18T13:32:13.720Z,3.27
2023-11-18T13:34:42.922Z,2.87
2023-11-18T13:37:13.828Z,4.97
2023-11-18T13:39:40.643Z,6.10
2023-11-18T13:42:24.542Z,4.63
2023-11-18T13:44:53.755Z,3.80
2023-11-18T13:47:21.612Z,5.03
2023-11-18T13:49:51.631Z,4.87
2023-11-18T13:52:19.826Z,4.47
2023-11-18T13:54:48.467Z,4.27
2023-11-18T13:57:15.472Z,5.47
2023-11-18T13:59:45.256Z,3.97
2023-11-18T14:02:12.965Z,4.27
2023-11-18T14:04:40.825Z,1.67
2023-11-18T14:07:07.650Z,4.80
2023-11-18T14:09:41.128Z,6.83
2023-11-18T14:12:09.086Z,4.03
2023-11-18T14:14:35.840Z,5.07
2023-11-18T14:17:02.588Z,5.60
2023-11-18T14:19:32.990Z,4.33
2023-11-18T14:21:59.744Z,7.50
2023-11-18T14:24:29.377Z,2.40
2023-11-18T14:26:57.644Z,5.37
2023-11-18T14:29:27.502Z,5.00
2023-11-18T14:31:55.898Z,4.03
2023-11-18T14:34:22.688Z,4.37
2023-11-18T14:36:49.966Z,7.10
2023-11-18T14:39:19.112Z,6.57
2023-11-18T14:41:49.003Z,3.87
2023-11-18T14:44:15.739Z,7.67
2023-11-18T14:46:42.641Z,3.70
2023-11-18T14:49:11.160Z,5.00
2023-11-18T14:51:38.084Z,2.63
2023-11-18T14:54:06.641Z,2.63
2023-11-18T14:56:33.482Z,3.93
2023-11-18T14:59:01.399Z,4.80
2023-11-18T15:01:30.072Z,5.60
2023-11-18T15:03:57.416Z,5.90
2023-11-18T15:06:28.589Z,2.97
2023-11-18T15:08:57.869Z,4.33
2023-11-18T15:11:25.223Z,3.80
2023-11-18T15:13:54.448Z,4.10
2023-11-18T15:16:21.898Z,5.83
2023-11-18T15:18:48.996Z,4.93
2023-11-18T15:21:16.384Z,4.17
2023-11-18T15:23:43.632Z,4.30
2023-11-18T15:26:10.862Z,2.90
2023-11-18T15:28:38.132Z,2.80
2023-11-18T15:31:05.453Z,5.17
2023-11-18T15:33:32.791Z,3.40
2023-11-18T15:35:59.773Z,2.87
2023-11-18T15:38:26.670Z,4.27
2023-11-18T15:40:54.182Z,4.13
2023-11-18T15:43:21.101Z,3.63
2023-11-18T15:45:48.014Z,8.83
2023-11-18T15:48:15.653Z,4.00
2023-11-18T15:50:42.714Z,6.63
2023-11-18T15:53:09.821Z,4.60
2023-11-18T15:55:39.630Z,3.30
2023-11-18T15:58:06.364Z,2.97
2023-11-18T16:00:33.433Z,2.47
2023-11-18T16:03:02.751Z,7.93
2023-11-18T16:05:35.272Z,6.20
2023-11-18T16:08:04.050Z,3.77
2023-11-18T16:10:31.343Z,3.47
2023-11-18T16:12:59.258Z,9.80
2023-11-18T16:15:28.646Z,2.53
2023-11-18T16:17:58.392Z,3.37
2023-11-18T16:20:27.312Z,2.03
2023-11-18T16:22:55.086Z,2.70
2023-11-18T16:25:24.267Z,5.37
2023-11-18T16:27:52.746Z,4.40
2023-11-18T16:30:30.413Z,5.63
2023-11-18T16:32:58.307Z,6.90
2023-11-18T16:35:26.733Z,9.20
2023-11-18T16:37:54.135Z,4.50
2023-11-18T16:40:21.891Z,7.30
2023-11-18T16:42:54.495Z,5.90
2023-11-18T16:45:21.993Z,5.80
2023-11-18T16:47:53.055Z,5.03
2023-11-18T16:50:21.179Z,5.20
2023-11-18T16:52:51.409Z,6.70
2023-11-18T16:55:18.336Z,5.20
2023-11-18T16:57:46.835Z,6.07
2023-11-18T17:00:20.662Z,2.40
2023-11-18T17:02:50.781Z,3.57
2023-11-18T17:05:18.134Z,3.27
2023-11-18T17:07:45.029Z,5.67
2023-11-18T17:10:12.961Z,4.87
2023-11-18T17:12:41.027Z,4.53
2023-11-18T17:15:14.203Z,4.57
2023-11-18T17:17:46.427Z,4.93
2023-11-18T17:20:15.516Z,5.17
2023-11-18T17:22:43.718Z,9.00
2023-11-18T17:25:18.016Z,5.87
2023-11-18T17:27:47.249Z,4.43
2023-11-18T17:30:17.341Z,7.80
2023-11-18T17:32:48.551Z,4.50
2023-11-18T17:35:16.893Z,3.37
2023-11-18T17:37:45.289Z,5.70
2023-11-18T17:40:13.248Z,7.67
2023-11-18T17:42:41.009Z,4.70
2023-11-18T17:45:09.110Z,4.50
2023-11-18T17:47:37.602Z,2.63
2023-11-18T17:50:13.086Z,3.40
2023-11-18T17:52:43.133Z,5.87
2023-11-18T17:55:10.666Z,4.50
2023-11-18T17:57:37.557Z,3.87
2023-11-18T18:00:13.176Z,3.47
2023-11-18T18:02:41.300Z,5.57
2023-11-18T18:05:09.305Z,4.47
2023-11-18T18:07:36.923Z,4.43
2023-11-18T18:10:04.031Z,2.70
2023-11-18T18:12:31.171Z,3.40
2023-11-18T18:14:57.916Z,3.07
2023-11-18T18:17:24.751Z,4.93
2023-11-18T18:19:52.096Z,3.17
2023-11-18T18:22:19.115Z,2.47
2023-11-18T18:24:45.776Z,6.13
2023-11-18T18:27:12.659Z,4.50
2023-11-18T18:29:39.381Z,4.00
2023-11-18T18:32:06.717Z,4.07
2023-11-18T18:34:33.405Z,3.90
2023-11-18T18:37:00.168Z,8.17
2023-11-18T18:39:26.928Z,3.87
2023-11-18T18:41:53.637Z,4.10
2023-11-18T18:44:20.482Z,2.93
2023-11-18T18:46:47.303Z,4.33
2023-11-18T18:49:17.267Z,2.43
2023-11-18T18:51:44.665Z,2.30
2023-11-18T18:54:12.173Z,3.53
2023-11-18T18:56:39.057Z,4.37
2023-11-18T18:59:11.802Z,2.87
2023-11-18T19:01:44.959Z,3.33
2023-11-18T19:04:12.973Z,2.13
2023-11-18T19:06:39.998Z,2.67
2023-11-18T19:09:09.603Z,2.63
2023-11-18T19:11:36.982Z,4.47
2023-11-18T19:14:03.833Z,1.60
2023-11-18T19:16:30.616Z,2.70
2023-11-18T19:18:57.370Z,2.37
2023-11-18T19:21:25.719Z,10.80
2023-11-18T19:23:55.512Z,5.90
2023-11-18T19:26:22.519Z,2.90
2023-11-18T19:28:49.359Z,4.30
2023-11-18T19:31:16.829Z,3.73
2023-11-18T19:33:43.807Z,2.73
2023-11-18T19:36:11.515Z,2.77
2023-11-18T19:38:39.295Z,3.93
2023-11-18T19:41:06.788Z,3.33
2023-11-18T19:43:36.846Z,1.43
2023-11-18T19:46:03.771Z,4.20
2023-11-18T19:48:32.592Z,3.00
2023-11-18T19:50:59.457Z,2.27
2023-11-18T19:53:26.925Z,3.17
2023-11-18T19:55:54.121Z,3.70
2023-11-18T19:58:23.003Z,5.07
2023-11-18T20:00:53.826Z,2.70
2023-11-18T20:03:23.406Z,2.37
2023-11-18T20:05:50.771Z,1.97
2023-11-18T20:08:20.514Z,3.20
2023-11-18T20:10:48.176Z,2.33
2023-11-18T20:13:15.786Z,1.30
2023-11-18T20:15:42.577Z,2.37
2023-11-18T20:18:12.553Z,2.20
2023-11-18T20:20:39.490Z,3.83
2023-11-18T20:23:06.672Z,4.90
2023-11-18T20:25:34.749Z,2.83
2023-11-18T20:28:01.470Z,3.33
2023-11-18T20:30:28.242Z,2.50
2023-11-18T20:32:57.007Z,3.77
2023-11-18T20:35:25.290Z,4.10
2023-11-18T20:37:52.591Z,2.60
2023-11-18T20:40:22.501Z,3.60
2023-11-18T20:42:50.176Z,3.37
2023-11-18T20:45:18.809Z,2.93
2023-11-18T20:47:49.843Z,2.73
2023-11-18T20:50:16.761Z,2.40
2023-11-18T20:52:44.105Z,3.57
2023-11-18T20:55:11.099Z,4.43
2023-11-18T20:57:38.586Z,5.30
2023-11-18T21:00:09.380Z,6.10
2023-11-18T21:02:36.875Z,5.10
2023-11-18T21:05:06.642Z,2.80
2023-11-18T21:07:33.796Z,3.07
2023-11-18T21:10:00.584Z,8.23
2023-11-18T21:12:27.339Z,7.83
2023-11-18T21:14:54.092Z,2.33
2023-11-18T21:17:25.739Z,5.27
2023-11-18T21:19:57.185Z,3.03
2023-11-18T21:22:24.449Z,3.70
2023-11-18T21:24:51.686Z,1.83
2023-11-18T21:27:18.478Z,4.13
2023-11-18T21:29:45.372Z,3.13
2023-11-18T21:32:12.230Z,3.30
2023-11-18T21:34:41.629Z,3.30
2023-11-18T21:37:11.272Z,1.90
2023-11-18T21:39:39.812Z,3.77
2023-11-18T21:42:08.671Z,6.53
2023-11-18T21:44:38.692Z,2.30
2023-11-18T21:47:05.681Z,3.03
2023-11-18T21:49:33.031Z,2.13
2023-11-18T21:52:00.546Z,1.00
2023-11-18T21:54:31.220Z,2.97
2023-11-18T21:56:58.454Z,2.13
2023-11-18T21:59:27.068Z,2.13
2023-11-18T22:01:55.733Z,0.67
2023-11-18T22:04:22.913Z,1.37
2023-11-18T22:06:52.537Z,1.10
2023-11-18T22:09:21.118Z,2.70
2023-11-18T22:11:49.125Z,1.30
2023-11-18T22:14:16.941Z,1.00
2023-11-18T22:16:43.768Z,1.23
2023-11-18T22:19:17.060Z,0.93
2023-11-18T22:21:44.080Z,2.37
2023-11-18T22:24:11.038Z,0.60
2023-11-18T22:26:39.340Z,0.73
2023-11-18T22:29:06.482Z,1.30
2023-11-18T22:31:33.248Z,0.90
2023-11-18T22:33:59.988Z,0.80
2023-11-18T22:36:26.701Z,2.03
2023-11-18T22:38:53.399Z,0.70
2023-11-18T22:41:20.254Z,0.63
2023-11-18T22:43:47.247Z,1.07
2023-11-18T22:46:14.012Z,0.80
2023-11-18T22:48:40.747Z,0.83
2023-11-18T22:51:07.558Z,2.40
2023-11-18T22:53:34.299Z,1.83
2023-11-18T22:56:00.970Z,2.43
2023-11-18T22:58:28.091Z,0.60
2023-11-18T23:00:56.217Z,0.70
2023-11-18T23:03:23.320Z,1.40
2023-11-18T23:05:51.877Z,2.97
2023-11-18T23:08:22.504Z,1.10
2023-11-18T23:10:49.476Z,0.77
2023-11-18T23:13:17.592Z,0.67
2023-11-18T23:15:45.489Z,0.53
2023-11-18T23:18:12.460Z,0.50
2023-11-18T23:20:39.392Z,1.07
2023-11-18T23:23:06.519Z,0.40
2023-11-18T23:25:34.478Z,1.03
2023-11-18T23:28:03.336Z,0.63
2023-11-18T23:30:32.552Z,1.03
2023-11-18T23:33:00.591Z,0.57
2023-11-18T23:35:29.239Z,0.43
2023-11-18T23:37:57.202Z,0.50
2023-11-18T23:40:26.425Z,1.27
2023-11-18T23:42:53.341Z,0.90
2023-11-18T23:45:20.548Z,0.40
2023-11-18T23:47:51.431Z,0.60
2023-11-18T23:50:18.903Z,0.43
2023-11-18T23:52:45.598Z,0.60
2023-11-18T23:55:15.449Z,1.20
2023-11-18T23:57:42.494Z,0.87
